sensor_id;sensor_type;location;lat;lon;timestamp;pressure;altitude;pressure_sealevel;temperature;humidity
54900;BME280;40801;41.924;25.562;2023-08-17T00:00:51;99406.31;;;22.81;62.29
54900;BME280;40801;41.924;25.562;2023-08-17T00:03:16;99411.78;;;22.77;62.98
54900;BME280;40801;41.924;25.562;2023-08-17T00:05:41;99402.34;;;22.75;62.65
54900;BME280;40801;41.924;25.562;2023-08-17T00:08:07;99408.59;;;22.72;62.88
54900;BME280;40801;41.924;25.562;2023-08-17T00:10:32;99410.94;;;22.70;62.72
54900;BME280;40801;41.924;25.562;2023-08-17T00:12:58;99415.25;;;22.67;62.86
54900;BME280;40801;41.924;25.562;2023-08-17T00:15:23;99416.44;;;22.66;63.00
54900;BME280;40801;41.924;25.562;2023-08-17T00:17:48;99413.28;;;22.64;62.86
54900;BME280;40801;41.924;25.562;2023-08-17T00:20:15;99410.91;;;22.63;62.86
54900;BME280;40801;41.924;25.562;2023-08-17T00:22:41;99417.97;;;22.56;63.43
54900;BME280;40801;41.924;25.562;2023-08-17T00:25:07;99416.00;;;22.57;62.95
54900;BME280;40801;41.924;25.562;2023-08-17T00:27:33;99418.31;;;22.55;62.97
54900;BME280;40801;41.924;25.562;2023-08-17T00:29:58;99416.78;;;22.58;62.41
54900;BME280;40801;41.924;25.562;2023-08-17T00:32:24;99420.31;;;22.58;62.72
54900;BME280;40801;41.924;25.562;2023-08-17T00:34:49;99418.69;;;22.53;62.70
54900;BME280;40801;41.924;25.562;2023-08-17T00:37:14;99415.97;;;22.53;62.66
54900;BME280;40801;41.924;25.562;2023-08-17T00:39:40;99409.66;;;22.53;62.46
54900;BME280;40801;41.924;25.562;2023-08-17T00:42:05;99421.44;;;22.50;62.64
54900;BME280;40801;41.924;25.562;2023-08-17T00:44:33;99419.44;;;22.43;62.91
54900;BME280;40801;41.924;25.562;2023-08-17T00:46:58;99414.72;;;22.40;62.71
54900;BME280;40801;41.924;25.562;2023-08-17T00:49:24;99412.34;;;22.35;62.87
54900;BME280;40801;41.924;25.562;2023-08-17T00:51:50;99411.84;;;22.26;63.40
54900;BME280;40801;41.924;25.562;2023-08-17T00:54:19;99412.22;;;22.21;63.53
54900;BME280;40801;41.924;25.562;2023-08-17T00:56:48;99407.13;;;22.23;63.32
54900;BME280;40801;41.924;25.562;2023-08-17T00:59:13;99405.91;;;22.17;63.53
54900;BME280;40801;41.924;25.562;2023-08-17T01:01:39;99410.19;;;22.11;63.97
54900;BME280;40801;41.924;25.562;2023-08-17T01:04:04;99403.91;;;22.10;63.95
54900;BME280;40801;41.924;25.562;2023-08-17T01:06:30;99398.41;;;22.07;63.76
54900;BME280;40801;41.924;25.562;2023-08-17T01:08:55;99394.44;;;22.04;63.97
54900;BME280;40801;41.924;25.562;2023-08-17T01:11:31;99398.00;;;22.05;64.34
54900;BME280;40801;41.924;25.562;2023-08-17T01:16:52;99392.81;;;22.00;63.74
54900;BME280;40801;41.924;25.562;2023-08-17T01:19:25;99389.25;;;21.95;63.95
54900;BME280;40801;41.924;25.562;2023-08-17T01:21:54;99382.53;;;21.89;64.11
54900;BME280;40801;41.924;25.562;2023-08-17T01:24:22;99384.09;;;21.87;63.82
54900;BME280;40801;41.924;25.562;2023-08-17T01:26:47;99374.69;;;21.91;63.68
54900;BME280;40801;41.924;25.562;2023-08-17T01:29:12;99380.97;;;21.92;63.58
54900;BME280;40801;41.924;25.562;2023-08-17T01:31:53;99382.53;;;21.89;64.37
54900;BME280;40801;41.924;25.562;2023-08-17T01:34:22;99383.34;;;21.93;63.32
54900;BME280;40801;41.924;25.562;2023-08-17T01:36:56;99386.09;;;21.93;64.21
54900;BME280;40801;41.924;25.562;2023-08-17T01:39:26;99380.59;;;21.93;63.28
54900;BME280;40801;41.924;25.562;2023-08-17T01:41:55;99388.84;;;21.93;63.48
54900;BME280;40801;41.924;25.562;2023-08-17T01:44:22;99391.56;;;21.90;63.52
54900;BME280;40801;41.924;25.562;2023-08-17T01:46:48;99394.63;;;21.81;63.81
54900;BME280;40801;41.924;25.562;2023-08-17T01:49:13;99386.81;;;21.87;63.40
54900;BME280;40801;41.924;25.562;2023-08-17T01:51:39;99395.84;;;21.87;63.20
54900;BME280;40801;41.924;25.562;2023-08-17T01:54:04;99391.47;;;21.79;63.50
54900;BME280;40801;41.924;25.562;2023-08-17T01:56:30;99384.75;;;21.73;63.67
54900;BME280;40801;41.924;25.562;2023-08-17T01:58:55;99386.00;;;21.83;63.26
54900;BME280;40801;41.924;25.562;2023-08-17T02:01:21;99386.78;;;21.80;63.44
54900;BME280;40801;41.924;25.562;2023-08-17T02:03:46;99385.19;;;21.79;63.47
54900;BME280;40801;41.924;25.562;2023-08-17T02:06:11;99385.59;;;21.81;63.42
54900;BME280;40801;41.924;25.562;2023-08-17T02:08:37;99378.94;;;21.82;63.13
54900;BME280;40801;41.924;25.562;2023-08-17T02:11:03;99371.47;;;21.79;63.39
54900;BME280;40801;41.924;25.562;2023-08-17T02:13:28;99377.72;;;21.76;63.48
54900;BME280;40801;41.924;25.562;2023-08-17T02:15:54;99375.06;;;21.86;62.90
54900;BME280;40801;41.924;25.562;2023-08-17T02:18:19;99375.06;;;21.90;62.69
54900;BME280;40801;41.924;25.562;2023-08-17T02:20:45;99375.50;;;21.95;62.23
54900;BME280;40801;41.924;25.562;2023-08-17T02:23:11;99378.25;;;21.95;62.14
54900;BME280;40801;41.924;25.562;2023-08-17T02:25:39;99373.94;;;21.94;62.54
54900;BME280;40801;41.924;25.562;2023-08-17T02:28:05;99378.31;;;21.99;62.04
54900;BME280;40801;41.924;25.562;2023-08-17T02:30:30;99379.81;;;21.96;61.99
54900;BME280;40801;41.924;25.562;2023-08-17T02:32:56;99388.03;;;21.93;62.56
54900;BME280;40801;41.924;25.562;2023-08-17T02:35:22;99386.09;;;21.93;62.21
54900;BME280;40801;41.924;25.562;2023-08-17T02:37:47;99383.72;;;21.92;62.54
54900;BME280;40801;41.924;25.562;2023-08-17T02:40:12;99385.28;;;21.89;62.36
54900;BME280;40801;41.924;25.562;2023-08-17T02:42:38;99391.94;;;21.88;62.59
54900;BME280;40801;41.924;25.562;2023-08-17T02:45:06;99389.59;;;21.90;62.27
54900;BME280;40801;41.924;25.562;2023-08-17T02:47:31;99393.16;;;21.94;62.11
54900;BME280;40801;41.924;25.562;2023-08-17T02:49:56;99384.91;;;21.94;61.95
54900;BME280;40801;41.924;25.562;2023-08-17T02:52:22;99382.97;;;21.95;61.83
54900;BME280;40801;41.924;25.562;2023-08-17T02:54:47;99379.81;;;21.96;62.06
54900;BME280;40801;41.924;25.562;2023-08-17T02:57:13;99383.00;;;21.99;61.91
54900;BME280;40801;41.924;25.562;2023-08-17T02:59:38;99396.69;;;21.95;62.41
54900;BME280;40801;41.924;25.562;2023-08-17T03:02:04;99392.41;;;21.98;62.22
54900;BME280;40801;41.924;25.562;2023-08-17T03:04:29;99407.28;;;21.96;62.26
54900;BME280;40801;41.924;25.562;2023-08-17T03:06:54;99397.06;;;21.93;62.21
54900;BME280;40801;41.924;25.562;2023-08-17T03:09:20;99397.03;;;21.90;62.17
54900;BME280;40801;41.924;25.562;2023-08-17T03:11:45;99398.22;;;21.89;62.35
54900;BME280;40801;41.924;25.562;2023-08-17T03:14:11;99404.84;;;21.84;62.65
54900;BME280;40801;41.924;25.562;2023-08-17T03:16:36;99404.88;;;21.88;62.46
54900;BME280;40801;41.924;25.562;2023-08-17T03:19:02;99404.91;;;21.91;62.24
54900;BME280;40801;41.924;25.562;2023-08-17T03:21:28;99408.06;;;21.93;62.11
54900;BME280;40801;41.924;25.562;2023-08-17T03:23:53;99408.06;;;21.93;62.19
54900;BME280;40801;41.924;25.562;2023-08-17T03:26:19;99400.28;;;21.99;61.79
54900;BME280;40801;41.924;25.562;2023-08-17T03:28:44;99397.94;;;22.01;61.81
54900;BME280;40801;41.924;25.562;2023-08-17T03:31:10;99404.59;;;22.00;62.08
54900;BME280;40801;41.924;25.562;2023-08-17T03:33:35;99406.19;;;22.01;61.90
54900;BME280;40801;41.924;25.562;2023-08-17T03:36:04;99404.97;;;21.99;62.09
54900;BME280;40801;41.924;25.562;2023-08-17T03:38:30;99404.22;;;22.02;62.16
54900;BME280;40801;41.924;25.562;2023-08-17T03:40:55;99409.31;;;22.03;62.17
54900;BME280;40801;41.924;25.562;2023-08-17T03:43:20;99410.97;;;22.08;61.99
54900;BME280;40801;41.924;25.562;2023-08-17T03:45:46;99405.09;;;22.09;62.18
54900;BME280;40801;41.924;25.562;2023-08-17T03:48:11;99406.28;;;22.15;61.92
54900;BME280;40801;41.924;25.562;2023-08-17T03:50:37;99409.47;;;22.21;61.83
54900;BME280;40801;41.924;25.562;2023-08-17T03:53:03;99411.44;;;22.24;61.67
54900;BME280;40801;41.924;25.562;2023-08-17T03:55:28;99414.59;;;22.26;61.95
54900;BME280;40801;41.924;25.562;2023-08-17T03:57:54;99409.94;;;22.27;61.95
54900;BME280;40801;41.924;25.562;2023-08-17T04:00:19;99410.38;;;22.36;61.52
54900;BME280;40801;41.924;25.562;2023-08-17T04:02:44;99403.31;;;22.38;61.39
54900;BME280;40801;41.924;25.562;2023-08-17T04:05:10;99405.69;;;22.40;61.01
54900;BME280;40801;41.924;25.562;2023-08-17T04:07:36;99411.22;;;22.50;60.62
54900;BME280;40801;41.924;25.562;2023-08-17T04:10:02;99405.75;;;22.54;60.63
54900;BME280;40801;41.924;25.562;2023-08-17T04:12:28;99406.94;;;22.53;60.08
54900;BME280;40801;41.924;25.562;2023-08-17T04:14:53;99409.72;;;22.56;60.31
54900;BME280;40801;41.924;25.562;2023-08-17T04:17:19;99408.19;;;22.66;59.66
54900;BME280;40801;41.924;25.562;2023-08-17T04:19:46;99417.63;;;22.69;59.69
54900;BME280;40801;41.924;25.562;2023-08-17T04:22:11;99412.53;;;22.71;59.08
54900;BME280;40801;41.924;25.562;2023-08-17T04:24:37;99413.72;;;22.77;59.17
54900;BME280;40801;41.924;25.562;2023-08-17T04:27:03;99412.97;;;22.80;58.93
54900;BME280;40801;41.924;25.562;2023-08-17T04:29:30;99418.09;;;22.81;59.01
54900;BME280;40801;41.924;25.562;2023-08-17T04:31:55;99415.34;;;22.81;58.81
54900;BME280;40801;41.924;25.562;2023-08-17T04:34:20;99424.06;;;22.91;58.29
54900;BME280;40801;41.924;25.562;2023-08-17T04:36:46;99422.13;;;23.02;57.54
54900;BME280;40801;41.924;25.562;2023-08-17T04:39:11;99419.78;;;23.07;57.59
54900;BME280;40801;41.924;25.562;2023-08-17T04:41:37;99422.59;;;23.22;56.64
54900;BME280;40801;41.924;25.562;2023-08-17T04:44:02;99419.06;;;23.28;56.63
54900;BME280;40801;41.924;25.562;2023-08-17T04:46:28;99419.13;;;23.46;56.54
54900;BME280;40801;41.924;25.562;2023-08-17T04:48:53;99423.50;;;23.58;55.85
54900;BME280;40801;41.924;25.562;2023-08-17T04:51:19;99419.16;;;23.67;55.47
54900;BME280;40801;41.924;25.562;2023-08-17T04:53:44;99419.59;;;23.76;54.92
54900;BME280;40801;41.924;25.562;2023-08-17T04:56:09;99428.63;;;23.91;54.37
54900;BME280;40801;41.924;25.562;2023-08-17T04:58:35;99421.19;;;24.06;53.66
54900;BME280;40801;41.924;25.562;2023-08-17T05:01:00;99430.63;;;24.12;53.44
54900;BME280;40801;41.924;25.562;2023-08-17T05:03:26;99423.50;;;24.18;53.18
54900;BME280;40801;41.924;25.562;2023-08-17T05:05:54;99430.22;;;24.35;52.80
54900;BME280;40801;41.924;25.562;2023-08-17T05:08:19;99425.09;;;24.40;52.91
54900;BME280;40801;41.924;25.562;2023-08-17T05:10:47;99428.19;;;24.57;52.15
54900;BME280;40801;41.924;25.562;2023-08-17T05:13:12;99427.41;;;24.56;52.13
54900;BME280;40801;41.924;25.562;2023-08-17T05:15:38;99424.22;;;24.72;52.03
54900;BME280;40801;41.924;25.562;2023-08-17T05:18:03;99428.91;;;24.89;51.90
54900;BME280;40801;41.924;25.562;2023-08-17T05:20:29;99418.25;;;25.02;51.52
54900;BME280;40801;41.924;25.562;2023-08-17T05:22:54;99417.78;;;25.14;51.15
54900;BME280;40801;41.924;25.562;2023-08-17T05:25:20;99415.38;;;25.23;51.23
54900;BME280;40801;41.924;25.562;2023-08-17T05:27:46;99415.28;;;25.41;50.92
54900;BME280;40801;41.924;25.562;2023-08-17T05:30:14;99410.09;;;25.50;50.58
54900;BME280;40801;41.924;25.562;2023-08-17T05:32:40;99415.53;;;25.61;50.69
54900;BME280;40801;41.924;25.562;2023-08-17T05:35:05;99414.28;;;25.80;50.32
54900;BME280;40801;41.924;25.562;2023-08-17T05:37:31;99410.97;;;25.96;50.09
54900;BME280;40801;41.924;25.562;2023-08-17T05:39:56;99400.56;;;26.14;49.67
54900;BME280;40801;41.924;25.562;2023-08-17T05:42:22;99413.88;;;26.22;49.49
54900;BME280;40801;41.924;25.562;2023-08-17T05:44:47;99407.13;;;26.27;49.29
54900;BME280;40801;41.924;25.562;2023-08-17T05:47:12;99405.50;;;26.33;49.38
54900;BME280;40801;41.924;25.562;2023-08-17T05:49:40;99406.91;;;26.52;48.85
54900;BME280;40801;41.924;25.562;2023-08-17T05:52:05;99400.91;;;26.61;48.88
54900;BME280;40801;41.924;25.562;2023-08-17T05:54:31;99402.22;;;26.83;48.35
54900;BME280;40801;41.924;25.562;2023-08-17T05:56:56;99406.38;;;26.98;48.24
54900;BME280;40801;41.924;25.562;2023-08-17T05:59:22;99402.28;;;27.10;47.94
54900;BME280;40801;41.924;25.562;2023-08-17T06:01:47;99401.16;;;27.07;47.58
54900;BME280;40801;41.924;25.562;2023-08-17T06:04:12;99412.31;;;27.31;46.88
54900;BME280;40801;41.924;25.562;2023-08-17T06:06:38;99420.38;;;27.49;46.86
54900;BME280;40801;41.924;25.562;2023-08-17T06:09:03;99417.81;;;27.61;46.35
54900;BME280;40801;41.924;25.562;2023-08-17T06:11:29;99411.28;;;27.48;46.43
54900;BME280;40801;41.924;25.562;2023-08-17T06:13:54;99421.75;;;27.64;46.48
54900;BME280;40801;41.924;25.562;2023-08-17T06:16:20;99414.78;;;28.02;46.50
54900;BME280;40801;41.924;25.562;2023-08-17T06:18:45;99418.38;;;28.26;45.46
54900;BME280;40801;41.924;25.562;2023-08-17T06:21:11;99428.66;;;28.49;45.34
54900;BME280;40801;41.924;25.562;2023-08-17T06:23:36;99419.09;;;28.74;44.80
54900;BME280;40801;41.924;25.562;2023-08-17T06:26:02;99413.56;;;28.93;44.42
54900;BME280;40801;41.924;25.562;2023-08-17T06:28:27;99413.69;;;28.86;43.91
54900;BME280;40801;41.924;25.562;2023-08-17T06:30:54;99417.78;;;29.18;42.57
54900;BME280;40801;41.924;25.562;2023-08-17T06:33:20;99423.28;;;29.21;42.34
54900;BME280;40801;41.924;25.562;2023-08-17T06:35:46;99421.03;;;29.52;42.31
54900;BME280;40801;41.924;25.562;2023-08-17T06:38:11;99419.38;;;29.71;41.71
54900;BME280;40801;41.924;25.562;2023-08-17T06:40:37;99422.28;;;29.84;41.70
54900;BME280;40801;41.924;25.562;2023-08-17T06:43:02;99419.50;;;29.84;41.30
54900;BME280;40801;41.924;25.562;2023-08-17T06:45:28;99423.31;;;30.23;41.11
54900;BME280;40801;41.924;25.562;2023-08-17T06:47:54;99418.28;;;30.17;40.68
54900;BME280;40801;41.924;25.562;2023-08-17T06:50:19;99423.34;;;30.68;40.42
54900;BME280;40801;41.924;25.562;2023-08-17T06:52:44;99411.25;;;30.87;39.91
54900;BME280;40801;41.924;25.562;2023-08-17T06:55:10;99407.41;;;31.10;39.10
54900;BME280;40801;41.924;25.562;2023-08-17T06:57:36;99405.91;;;31.34;38.37
54900;BME280;40801;41.924;25.562;2023-08-17T07:00:01;99409.22;;;31.17;38.35
54900;BME280;40801;41.924;25.562;2023-08-17T07:02:30;99417.94;;;31.44;37.72
54900;BME280;40801;41.924;25.562;2023-08-17T07:04:55;99408.47;;;31.41;37.32
54900;BME280;40801;41.924;25.562;2023-08-17T07:07:21;99409.91;;;31.59;37.72
54900;BME280;40801;41.924;25.562;2023-08-17T07:09:46;99408.03;;;31.81;37.33
54900;BME280;40801;41.924;25.562;2023-08-17T07:12:11;99407.91;;;31.72;36.48
54900;BME280;40801;41.924;25.562;2023-08-17T07:14:37;99402.78;;;31.83;36.63
54900;BME280;40801;41.924;25.562;2023-08-17T07:17:02;99404.19;;;32.00;36.31
54900;BME280;40801;41.924;25.562;2023-08-17T07:19:28;99410.06;;;32.28;35.79
54900;BME280;40801;41.924;25.562;2023-08-17T07:21:53;99402.97;;;32.49;35.35
54900;BME280;40801;41.924;25.562;2023-08-17T07:24:19;99408.88;;;32.51;35.07
54900;BME280;40801;41.924;25.562;2023-08-17T07:26:44;99404.97;;;32.70;35.14
54900;BME280;40801;41.924;25.562;2023-08-17T07:29:10;99410.22;;;33.12;35.06
54900;BME280;40801;41.924;25.562;2023-08-17T07:31:37;99404.81;;;33.39;34.53
54900;BME280;40801;41.924;25.562;2023-08-17T07:34:04;99406.44;;;33.59;33.35
54900;BME280;40801;41.924;25.562;2023-08-17T07:36:29;99403.97;;;33.61;33.67
54900;BME280;40801;41.924;25.562;2023-08-17T07:38:55;99397.56;;;34.09;32.92
54900;BME280;40801;41.924;25.562;2023-08-17T07:41:20;99394.16;;;34.33;32.95
54900;BME280;40801;41.924;25.562;2023-08-17T07:43:45;99393.72;;;34.53;32.39
54900;BME280;40801;41.924;25.562;2023-08-17T07:46:11;99397.44;;;34.77;32.11
54900;BME280;40801;41.924;25.562;2023-08-17T07:48:36;99390.75;;;34.84;31.56
54900;BME280;40801;41.924;25.562;2023-08-17T07:51:01;99391.19;;;34.82;31.27
54900;BME280;40801;41.924;25.562;2023-08-17T07:53:27;99391.03;;;35.04;30.83
54900;BME280;40801;41.924;25.562;2023-08-17T07:55:52;99395.94;;;35.18;30.54
54900;BME280;40801;41.924;25.562;2023-08-17T07:58:18;99387.13;;;35.01;30.35
54900;BME280;40801;41.924;25.562;2023-08-17T08:00:43;99397.47;;;35.28;30.20
54900;BME280;40801;41.924;25.562;2023-08-17T08:03:08;99382.31;;;35.44;29.98
54900;BME280;40801;41.924;25.562;2023-08-17T08:05:34;99377.84;;;35.37;29.68
54900;BME280;40801;41.924;25.562;2023-08-17T08:07:59;99378.22;;;35.78;29.31
54900;BME280;40801;41.924;25.562;2023-08-17T08:10:25;99375.34;;;35.96;29.21
54900;BME280;40801;41.924;25.562;2023-08-17T08:12:50;99375.84;;;35.62;29.32
54900;BME280;40801;41.924;25.562;2023-08-17T08:15:17;99377.84;;;36.18;28.74
54900;BME280;40801;41.924;25.562;2023-08-17T08:17:42;99374.66;;;36.49;28.33
54900;BME280;40801;41.924;25.562;2023-08-17T08:20:08;99376.16;;;36.12;28.53
54900;BME280;40801;41.924;25.562;2023-08-17T08:22:33;99367.91;;;36.08;28.65
54900;BME280;40801;41.924;25.562;2023-08-17T08:25:17;99369.84;;;36.79;27.60
54900;BME280;40801;41.924;25.562;2023-08-17T08:27:43;99367.13;;;36.85;28.07
54900;BME280;40801;41.924;25.562;2023-08-17T08:30:08;99374.06;;;36.60;27.29
54900;BME280;40801;41.924;25.562;2023-08-17T08:32:33;99373.81;;;37.32;26.85
54900;BME280;40801;41.924;25.562;2023-08-17T08:34:59;99372.91;;;37.40;27.04
54900;BME280;40801;41.924;25.562;2023-08-17T08:37:24;99367.28;;;37.26;27.10
54900;BME280;40801;41.924;25.562;2023-08-17T08:39:51;99370.13;;;37.61;26.61
54900;BME280;40801;41.924;25.562;2023-08-17T08:42:17;99360.81;;;38.10;25.73
54900;BME280;40801;41.924;25.562;2023-08-17T08:44:44;99358.34;;;37.97;25.96
54900;BME280;40801;41.924;25.562;2023-08-17T08:47:09;99353.84;;;37.85;25.14
54900;BME280;40801;41.924;25.562;2023-08-17T08:49:39;99352.75;;;37.62;23.99
54900;BME280;40801;41.924;25.562;2023-08-17T08:52:07;99354.63;;;38.06;24.49
54900;BME280;40801;41.924;25.562;2023-08-17T08:54:35;99348.50;;;38.28;24.53
54900;BME280;40801;41.924;25.562;2023-08-17T08:57:06;99340.59;;;38.32;23.53
54900;BME280;40801;41.924;25.562;2023-08-17T08:59:34;99345.09;;;38.70;23.62
54900;BME280;40801;41.924;25.562;2023-08-17T09:02:00;99340.94;;;38.91;23.50
54900;BME280;40801;41.924;25.562;2023-08-17T09:04:27;99329.41;;;39.26;23.63
54900;BME280;40801;41.924;25.562;2023-08-17T09:06:53;99330.50;;;39.34;23.01
54900;BME280;40801;41.924;25.562;2023-08-17T09:09:19;99325.75;;;39.52;22.51
54900;BME280;40801;41.924;25.562;2023-08-17T09:11:45;99323.69;;;40.06;21.97
54900;BME280;40801;41.924;25.562;2023-08-17T09:14:10;99328.13;;;40.35;21.63
54900;BME280;40801;41.924;25.562;2023-08-17T09:16:36;99321.19;;;40.25;21.67
54900;BME280;40801;41.924;25.562;2023-08-17T09:19:01;99319.47;;;40.55;20.88
54900;BME280;40801;41.924;25.562;2023-08-17T09:21:31;99321.44;;;40.21;20.21
54900;BME280;40801;41.924;25.562;2023-08-17T09:23:57;99310.88;;;40.11;21.37
54900;BME280;40801;41.924;25.562;2023-08-17T09:26:22;99319.13;;;40.20;21.16
54900;BME280;40801;41.924;25.562;2023-08-17T09:28:51;99308.09;;;40.33;20.19
54900;BME280;40801;41.924;25.562;2023-08-17T09:31:23;99320.75;;;40.49;19.72
54900;BME280;40801;41.924;25.562;2023-08-17T09:33:52;99308.03;;;40.05;20.06
54900;BME280;40801;41.924;25.562;2023-08-17T09:36:22;99299.19;;;39.81;20.18
54900;BME280;40801;41.924;25.562;2023-08-17T09:38:48;99305.25;;;40.33;20.33
54900;BME280;40801;41.924;25.562;2023-08-17T09:41:16;99302.75;;;40.97;20.32
54900;BME280;40801;41.924;25.562;2023-08-17T09:43:41;99302.25;;;40.98;19.88
54900;BME280;40801;41.924;25.562;2023-08-17T09:46:06;99310.19;;;40.38;19.98
54900;BME280;40801;41.924;25.562;2023-08-17T09:48:33;99303.72;;;40.32;19.61
54900;BME280;40801;41.924;25.562;2023-08-17T09:50:58;99305.97;;;40.06;19.72
54900;BME280;40801;41.924;25.562;2023-08-17T09:53:26;99303.53;;;40.52;20.14
54900;BME280;40801;41.924;25.562;2023-08-17T09:55:52;99302.28;;;40.81;19.79
54900;BME280;40801;41.924;25.562;2023-08-17T09:58:18;99302.47;;;40.44;19.94
54900;BME280;40801;41.924;25.562;2023-08-17T10:00:47;99295.28;;;40.77;20.04
54900;BME280;40801;41.924;25.562;2023-08-17T10:03:15;99282.69;;;41.11;19.69
54900;BME280;40801;41.924;25.562;2023-08-17T10:05:43;99297.13;;;40.91;19.95
54900;BME280;40801;41.924;25.562;2023-08-17T10:08:11;99295.06;;;41.08;20.71
54900;BME280;40801;41.924;25.562;2023-08-17T10:10:40;99306.84;;;41.40;19.68
54900;BME280;40801;41.924;25.562;2023-08-17T10:15:34;99298.25;;;41.63;19.48
54900;BME280;40801;41.924;25.562;2023-08-17T10:20:34;99283.59;;;42.17;19.21
54900;BME280;40801;41.924;25.562;2023-08-17T10:23:20;99281.09;;;42.49;18.69
54900;BME280;40801;41.924;25.562;2023-08-17T10:25:47;99280.25;;;41.71;19.02
54900;BME280;40801;41.924;25.562;2023-08-17T10:28:13;99279.19;;;42.27;19.80
54900;BME280;40801;41.924;25.562;2023-08-17T10:30:38;99291.56;;;41.71;20.08
54900;BME280;40801;41.924;25.562;2023-08-17T10:33:05;99281.41;;;42.40;19.84
54900;BME280;40801;41.924;25.562;2023-08-17T10:35:32;99282.44;;;42.36;19.65
54900;BME280;40801;41.924;25.562;2023-08-17T10:37:59;99283.22;;;42.37;19.29
54900;BME280;40801;41.924;25.562;2023-08-17T10:40:28;99276.78;;;42.36;18.95
54900;BME280;40801;41.924;25.562;2023-08-17T10:42:57;99272.97;;;42.64;19.71
54900;BME280;40801;41.924;25.562;2023-08-17T10:45:33;99272.94;;;42.70;18.80
54900;BME280;40801;41.924;25.562;2023-08-17T10:50:37;99260.50;;;42.43;19.67
54900;BME280;40801;41.924;25.562;2023-08-17T10:53:08;99257.75;;;42.97;19.65
54900;BME280;40801;41.924;25.562;2023-08-17T10:56:00;99243.38;;;43.14;19.46
54900;BME280;40801;41.924;25.562;2023-08-17T10:58:30;99248.22;;;42.94;19.87
54900;BME280;40801;41.924;25.562;2023-08-17T11:00:57;99259.13;;;41.72;20.39
54900;BME280;40801;41.924;25.562;2023-08-17T11:03:23;99257.38;;;42.52;20.03
54900;BME280;40801;41.924;25.562;2023-08-17T11:13:30;99239.34;;;43.04;19.89
54900;BME280;40801;41.924;25.562;2023-08-17T11:15:58;99239.09;;;43.26;19.23
54900;BME280;40801;41.924;25.562;2023-08-17T11:18:23;99219.97;;;43.51;19.17
54900;BME280;40801;41.924;25.562;2023-08-17T11:20:49;99216.06;;;43.54;19.25
54900;BME280;40801;41.924;25.562;2023-08-17T11:23:15;99219.13;;;43.94;19.34
54900;BME280;40801;41.924;25.562;2023-08-17T11:25:42;99219.00;;;44.05;19.48
54900;BME280;40801;41.924;25.562;2023-08-17T11:28:08;99216.53;;;44.46;18.59
54900;BME280;40801;41.924;25.562;2023-08-17T11:30:34;99219.44;;;43.90;18.31
54900;BME280;40801;41.924;25.562;2023-08-17T11:33:01;99226.28;;;44.00;18.72
54900;BME280;40801;41.924;25.562;2023-08-17T11:35:26;99219.38;;;44.14;18.15
54900;BME280;40801;41.924;25.562;2023-08-17T11:37:52;99225.44;;;44.24;18.46
54900;BME280;40801;41.924;25.562;2023-08-17T11:40:17;99215.56;;;43.74;18.43
54900;BME280;40801;41.924;25.562;2023-08-17T11:42:44;99206.22;;;44.30;18.40
54900;BME280;40801;41.924;25.562;2023-08-17T11:45:10;99198.34;;;44.36;18.67
54900;BME280;40801;41.924;25.562;2023-08-17T11:47:39;99195.16;;;44.27;18.12
54900;BME280;40801;41.924;25.562;2023-08-17T11:50:06;99197.06;;;44.18;18.12
54900;BME280;40801;41.924;25.562;2023-08-17T11:52:33;99207.16;;;43.44;18.93
54900;BME280;40801;41.924;25.562;2023-08-17T11:54:59;99204.94;;;43.56;18.97
54900;BME280;40801;41.924;25.562;2023-08-17T11:57:25;99192.47;;;44.15;18.76
54900;BME280;40801;41.924;25.562;2023-08-17T11:59:55;99192.03;;;44.11;18.95
54900;BME280;40801;41.924;25.562;2023-08-17T12:02:24;99192.22;;;44.45;18.10
54900;BME280;40801;41.924;25.562;2023-08-17T12:04:51;99187.66;;;44.88;18.50
54900;BME280;40801;41.924;25.562;2023-08-17T12:07:17;99185.72;;;44.77;18.06
54900;BME280;40801;41.924;25.562;2023-08-17T12:09:44;99183.09;;;44.21;18.47
54900;BME280;40801;41.924;25.562;2023-08-17T12:12:10;99182.56;;;43.66;19.42
54900;BME280;40801;41.924;25.562;2023-08-17T12:14:36;99185.97;;;43.83;19.14
54900;BME280;40801;41.924;25.562;2023-08-17T12:17:02;99188.97;;;43.91;18.82
54900;BME280;40801;41.924;25.562;2023-08-17T12:19:29;99189.78;;;44.04;18.59
54900;BME280;40801;41.924;25.562;2023-08-17T12:21:56;99186.34;;;43.93;18.63
54900;BME280;40801;41.924;25.562;2023-08-17T12:24:25;99172.56;;;44.47;17.84
54900;BME280;40801;41.924;25.562;2023-08-17T12:26:51;99171.88;;;45.00;17.62
54900;BME280;40801;41.924;25.562;2023-08-17T12:29:16;99172.59;;;44.74;17.96
54900;BME280;40801;41.924;25.562;2023-08-17T12:31:42;99182.22;;;44.71;18.04
54900;BME280;40801;41.924;25.562;2023-08-17T12:34:07;99171.16;;;43.90;17.94
54900;BME280;40801;41.924;25.562;2023-08-17T12:36:33;99174.63;;;43.45;18.34
54900;BME280;40801;41.924;25.562;2023-08-17T12:38:58;99169.13;;;44.04;17.81
54900;BME280;40801;41.924;25.562;2023-08-17T12:41:24;99158.03;;;43.49;18.30
54900;BME280;40801;41.924;25.562;2023-08-17T12:43:49;99155.06;;;44.11;17.77
54900;BME280;40801;41.924;25.562;2023-08-17T12:46:15;99164.94;;;43.35;18.36
54900;BME280;40801;41.924;25.562;2023-08-17T12:48:40;99153.31;;;43.89;18.09
54900;BME280;40801;41.924;25.562;2023-08-17T12:51:06;99145.44;;;43.64;18.19
54900;BME280;40801;41.924;25.562;2023-08-17T12:53:31;99162.19;;;43.48;18.61
54900;BME280;40801;41.924;25.562;2023-08-17T12:55:56;99159.56;;;43.88;17.69
54900;BME280;40801;41.924;25.562;2023-08-17T12:58:23;99157.78;;;43.85;18.24
54900;BME280;40801;41.924;25.562;2023-08-17T13:00:49;99148.94;;;43.88;17.66
54900;BME280;40801;41.924;25.562;2023-08-17T13:03:19;99154.63;;;44.07;17.85